createdAt,value
2022-12-01T00:00:58.525Z,7.40
2022-12-01T00:01:58.681Z,7.46
2022-12-01T00:02:58.685Z,7.48
2022-12-01T00:03:58.584Z,7.46
2022-12-01T00:04:58.604Z,7.50
2022-12-01T00:05:58.628Z,7.58
2022-12-01T00:06:58.648Z,7.55
2022-12-01T00:07:58.698Z,7.58
2022-12-01T00:08:58.682Z,7.55
2022-12-01T00:09:58.701Z,7.57
2022-12-01T00:10:58.720Z,7.49
2022-12-01T00:11:58.739Z,7.52
2022-12-01T00:12:58.760Z,7.53
2022-12-01T00:13:58.775Z,7.50
2022-12-01T00:14:58.801Z,7.55
2022-12-01T00:15:58.877Z,7.57
2022-12-01T00:16:58.894Z,7.52
2022-12-01T00:17:58.859Z,7.58
2022-12-01T00:18:58.881Z,7.55
2022-12-01T00:19:58.896Z,7.48
2022-12-01T00:20:58.915Z,7.49
2022-12-01T00:21:58.940Z,7.58
2022-12-01T00:22:58.956Z,7.48
2022-12-01T00:23:58.983Z,7.49
2022-12-01T00:24:58.995Z,7.53
2022-12-01T00:25:59.014Z,7.58
2022-12-01T00:26:59.034Z,7.60
2022-12-01T00:27:59.055Z,7.53
2022-12-01T00:28:59.070Z,7.52
2022-12-01T00:29:59.093Z,7.55
2022-12-01T00:30:59.124Z,7.48
2022-12-01T00:31:59.212Z,7.49
2022-12-01T00:32:59.152Z,7.50
2022-12-01T00:33:59.171Z,7.45
2022-12-01T00:34:59.193Z,7.43
2022-12-01T00:35:59.211Z,7.45
2022-12-01T00:36:59.233Z,7.46
2022-12-01T00:37:59.260Z,7.40
2022-12-01T00:38:59.269Z,7.32
2022-12-01T00:39:59.303Z,7.40
2022-12-01T00:40:59.311Z,7.42
2022-12-01T00:41:59.331Z,7.40
2022-12-01T00:42:59.347Z,7.39
2022-12-01T00:43:59.368Z,7.31
2022-12-01T00:44:59.387Z,7.35
2022-12-01T00:45:59.464Z,7.32
2022-12-01T00:46:59.427Z,7.23
2022-12-01T00:47:59.445Z,7.27
2022-12-01T00:48:59.464Z,7.20
2022-12-01T00:49:59.489Z,7.27
2022-12-01T00:50:59.502Z,7.35
2022-12-01T00:51:59.523Z,7.24
2022-12-01T00:52:59.549Z,7.21
2022-12-01T00:53:59.563Z,7.23
2022-12-01T00:54:59.584Z,7.24
2022-12-01T00:55:59.606Z,7.24
2022-12-01T00:56:59.622Z,7.28
2022-12-01T00:57:59.638Z,7.27
2022-12-01T00:58:59.686Z,7.28
2022-12-01T00:59:59.684Z,7.25
2022-12-01T01:00:59.739Z,7.24
2022-12-01T01:01:59.750Z,7.24
2022-12-01T01:02:59.751Z,7.15
2022-12-01T01:03:59.761Z,7.13
2022-12-01T01:04:59.780Z,7.21
2022-12-01T01:05:59.839Z,7.20
2022-12-01T01:06:59.820Z,7.20
2022-12-01T01:07:59.868Z,7.13
2022-12-01T01:08:59.859Z,7.23
2022-12-01T01:09:59.876Z,7.15
2022-12-01T01:10:59.891Z,7.16
2022-12-01T01:11:59.917Z,7.21
2022-12-01T01:12:59.935Z,7.16
2022-12-01T01:13:59.954Z,7.27
2022-12-01T01:14:59.973Z,7.16
2022-12-01T01:16:00.010Z,7.17
2022-12-01T01:17:00.058Z,7.10
2022-12-01T01:18:00.034Z,7.25
2022-12-01T01:19:00.051Z,7.12
2022-12-01T01:20:00.083Z,7.13
2022-12-01T01:21:00.094Z,7.12
2022-12-01T01:22:00.110Z,7.12
2022-12-01T01:23:00.129Z,7.17
2022-12-01T01:24:00.151Z,7.20
2022-12-01T01:25:00.177Z,7.15
2022-12-01T01:26:00.186Z,7.13
2022-12-01T01:27:00.207Z,7.13
2022-12-01T01:28:00.227Z,7.24
2022-12-01T01:29:00.247Z,7.15
2022-12-01T01:30:00.265Z,7.15
2022-12-01T01:31:00.328Z,7.20
2022-12-01T01:32:00.307Z,7.20
2022-12-01T01:33:00.331Z,7.21
2022-12-01T01:34:00.340Z,7.12
2022-12-01T01:35:00.360Z,7.17
2022-12-01T01:36:00.405Z,7.12
2022-12-01T01:37:00.403Z,7.12
2022-12-01T01:38:00.420Z,7.05
2022-12-01T01:39:00.462Z,7.10
2022-12-01T01:40:00.457Z,7.09
2022-12-01T01:41:00.479Z,7.12
2022-12-01T01:42:00.498Z,7.13
2022-12-01T01:43:00.515Z,7.07
2022-12-01T01:44:00.535Z,7.12
2022-12-01T01:45:00.557Z,7.10
2022-12-01T01:46:00.619Z,7.17
2022-12-01T01:47:00.595Z,7.12
2022-12-01T01:48:00.614Z,7.17
2022-12-01T01:49:00.638Z,7.10
2022-12-01T01:50:00.672Z,7.23
2022-12-01T01:51:00.668Z,7.15
2022-12-01T01:52:00.692Z,7.10
2022-12-01T01:53:00.711Z,7.13
2022-12-01T01:54:00.732Z,7.16
2022-12-01T01:55:00.749Z,7.13
2022-12-01T01:56:00.768Z,7.10
2022-12-01T01:57:00.788Z,7.12
2022-12-01T01:58:00.812Z,7.15
2022-12-01T01:59:00.827Z,7.13
2022-12-01T02:00:00.848Z,7.15
2022-12-01T02:01:00.901Z,7.10
2022-12-01T02:02:00.911Z,7.09
2022-12-01T02:03:00.987Z,7.13
2022-12-01T02:04:00.923Z,7.12
2022-12-01T02:05:00.944Z,7.20
2022-12-01T02:06:04.817Z,7.13
2022-12-01T02:07:00.983Z,7.16
2022-12-01T02:08:01.054Z,7.20
2022-12-01T02:09:01.024Z,7.12
2022-12-01T02:10:01.048Z,7.23
2022-12-01T02:11:01.059Z,7.15
2022-12-01T02:12:01.081Z,7.16
2022-12-01T02:13:01.127Z,7.13
2022-12-01T02:14:01.119Z,7.13
2022-12-01T02:15:01.138Z,7.15
2022-12-01T02:16:01.157Z,7.12
2022-12-01T02:17:01.243Z,7.20
2022-12-01T02:18:01.190Z,7.16
2022-12-01T02:19:01.213Z,7.21
2022-12-01T02:20:01.252Z,7.16
2022-12-01T02:21:01.277Z,7.10
2022-12-01T02:22:01.275Z,7.25
2022-12-01T02:23:01.298Z,7.27
2022-12-01T02:24:01.309Z,7.21
2022-12-01T02:25:01.332Z,7.17
2022-12-01T02:26:01.369Z,7.17
2022-12-01T02:27:01.371Z,7.15
2022-12-01T02:28:01.390Z,7.23
2022-12-01T02:29:01.411Z,7.20
2022-12-01T02:30:01.437Z,7.15
2022-12-01T02:31:01.529Z,7.25
2022-12-01T02:32:01.470Z,7.16
2022-12-01T02:33:01.498Z,7.20
2022-12-01T02:34:01.506Z,7.16
2022-12-01T02:35:01.527Z,7.15
2022-12-01T02:36:01.546Z,7.15
2022-12-01T02:37:01.568Z,7.12
2022-12-01T02:38:01.582Z,7.17
2022-12-01T02:39:01.606Z,7.20
2022-12-01T02:40:01.620Z,7.10
2022-12-01T02:41:01.646Z,7.13
2022-12-01T02:42:01.656Z,7.17
2022-12-01T02:43:01.680Z,7.17
2022-12-01T02:44:01.701Z,7.25
2022-12-01T02:45:01.724Z,7.23
2022-12-01T02:46:01.796Z,7.23
2022-12-01T02:47:01.762Z,7.17
2022-12-01T02:48:01.779Z,7.17
2022-12-01T02:49:01.798Z,7.13
2022-12-01T02:50:01.818Z,7.15
2022-12-01T02:51:01.844Z,7.13
2022-12-01T02:52:01.856Z,7.21
2022-12-01T02:53:01.883Z,7.12
2022-12-01T02:54:01.897Z,7.15
2022-12-01T02:55:01.914Z,7.15
2022-12-01T02:56:01.937Z,7.09
2022-12-01T02:57:01.955Z,7.12
2022-12-01T02:58:01.975Z,7.10
2022-12-01T02:59:01.992Z,7.06
2022-12-01T03:00:02.015Z,7.13
2022-12-01T03:01:02.098Z,7.05
2022-12-01T03:02:02.054Z,7.05
2022-12-01T03:03:02.185Z,7.13
2022-12-01T03:04:02.085Z,7.03
2022-12-01T03:05:02.108Z,7.05
2022-12-01T03:06:02.195Z,7.10
2022-12-01T03:07:02.153Z,7.06
2022-12-01T03:08:02.255Z,7.03
2022-12-01T03:09:02.225Z,7.06
2022-12-01T03:10:02.208Z,6.92
2022-12-01T03:11:02.361Z,7.12
2022-12-01T03:12:02.254Z,7.03
2022-12-01T03:13:02.281Z,6.97
2022-12-01T03:14:02.280Z,7.03
2022-12-01T03:15:02.302Z,6.99
2022-12-01T03:16:02.376Z,6.94
2022-12-01T03:17:02.340Z,6.98
2022-12-01T03:18:02.361Z,6.98
2022-12-01T03:19:02.376Z,7.02
2022-12-01T03:20:02.417Z,7.06
2022-12-01T03:21:02.418Z,6.92
2022-12-01T03:22:02.435Z,6.98
2022-12-01T03:23:02.457Z,6.97
2022-12-01T03:24:02.477Z,7.05
2022-12-01T03:25:02.541Z,7.03
2022-12-01T03:26:02.514Z,7.03
2022-12-01T03:27:02.534Z,7.10
2022-12-01T03:28:22.451Z,7.10
2022-12-01T03:29:02.575Z,7.13
2022-12-01T03:30:02.595Z,7.10
2022-12-01T03:31:02.637Z,7.05
2022-12-01T03:32:02.633Z,7.07
2022-12-01T03:33:02.653Z,7.15
2022-12-01T03:34:02.666Z,7.17
2022-12-01T03:35:02.692Z,7.06
2022-12-01T03:36:02.704Z,7.06
2022-12-01T03:37:02.726Z,7.02
2022-12-01T03:38:02.750Z,7.12
2022-12-01T03:39:02.767Z,7.03
2022-12-01T03:40:02.783Z,7.05
2022-12-01T03:41:02.811Z,7.09
2022-12-01T03:42:02.825Z,7.13
2022-12-01T03:43:02.843Z,7.09
2022-12-01T03:44:02.863Z,7.10
2022-12-01T03:45:02.880Z,7.10
2022-12-01T03:46:02.981Z,7.12
2022-12-01T03:47:02.922Z,7.09
2022-12-01T03:48:02.940Z,7.06
2022-12-01T03:49:02.961Z,6.94
2022-12-01T03:50:02.982Z,6.92
2022-12-01T03:51:02.998Z,6.92
2022-12-01T03:52:03.019Z,7.10
2022-12-01T03:53:03.039Z,7.05
2022-12-01T03:54:03.062Z,7.07
2022-12-01T03:55:03.080Z,7.07
2022-12-01T03:56:03.114Z,7.07
2022-12-01T03:57:03.114Z,7.09
2022-12-01T03:58:03.137Z,7.09
2022-12-01T03:59:03.156Z,7.09
2022-12-01T04:00:03.175Z,7.12
2022-12-01T04:01:03.216Z,7.10
2022-12-01T04:02:03.285Z,7.09
2022-12-01T04:03:03.342Z,7.10
2022-12-01T04:04:03.253Z,6.98
2022-12-01T04:05:03.270Z,7.09
2022-12-01T04:06:03.292Z,7.06
2022-12-01T04:07:03.443Z,7.07
2022-12-01T04:08:03.402Z,6.97
2022-12-01T04:09:03.360Z,6.97
2022-12-01T04:10:03.367Z,6.94
2022-12-01T04:11:03.388Z,6.94
2022-12-01T04:12:03.406Z,6.91
2022-12-01T04:13:03.430Z,6.94
2022-12-01T04:14:03.451Z,6.89
2022-12-01T04:15:03.464Z,6.99
2022-12-01T04:16:03.529Z,6.97
2022-12-01T04:17:03.532Z,6.97
2022-12-01T04:18:03.525Z,6.92
2022-12-01T04:19:03.540Z,7.02
2022-12-01T04:20:03.559Z,6.89
2022-12-01T04:21:03.579Z,6.97
2022-12-01T04:22:03.596Z,6.97
2022-12-01T04:23:03.615Z,6.97
2022-12-01T04:24:03.672Z,6.97
2022-12-01T04:25:03.655Z,7.02
2022-12-01T04:26:03.674Z,7.03
2022-12-01T04:27:03.696Z,6.97
2022-12-01T04:28:03.714Z,7.02
2022-12-01T04:29:03.736Z,6.95
2022-12-01T04:30:03.753Z,6.91
2022-12-01T04:31:03.795Z,7.05
2022-12-01T04:32:03.794Z,6.99
2022-12-01T04:33:03.807Z,6.94
2022-12-01T04:34:03.831Z,7.03
2022-12-01T04:35:03.850Z,7.12
2022-12-01T04:36:03.868Z,7.05
2022-12-01T04:37:03.889Z,6.97
2022-12-01T04:38:03.930Z,7.02
2022-12-01T04:39:03.926Z,6.95
2022-12-01T04:40:03.944Z,6.88
2022-12-01T04:41:03.966Z,7.02
2022-12-01T04:42:03.979Z,6.91
2022-12-01T04:43:04.005Z,6.99
2022-12-01T04:44:04.023Z,6.98
2022-12-01T04:45:04.039Z,6.97
2022-12-01T04:46:04.060Z,6.94
2022-12-01T04:47:04.141Z,6.95
2022-12-01T04:48:04.098Z,7.03
2022-12-01T04:49:04.124Z,6.92
2022-12-01T04:50:04.137Z,6.99
2022-12-01T04:51:04.159Z,6.97
2022-12-01T04:52:04.177Z,6.98
2022-12-01T04:53:04.194Z,6.98
2022-12-01T04:54:04.216Z,6.99
2022-12-01T04:55:04.234Z,6.98
2022-12-01T04:56:04.263Z,6.94
2022-12-01T04:57:04.272Z,6.97
2022-12-01T04:58:04.291Z,6.89
2022-12-01T04:59:04.328Z,6.98
2022-12-01T05:00:04.333Z,6.99
2022-12-01T05:01:04.434Z,6.95
2022-12-01T05:02:04.499Z,6.92
2022-12-01T05:03:04.388Z,7.03
2022-12-01T05:04:04.404Z,6.99
2022-12-01T05:05:04.427Z,6.95
2022-12-01T05:06:04.446Z,7.05
2022-12-01T05:07:04.465Z,6.95
2022-12-01T05:08:04.554Z,6.95
2022-12-01T05:09:04.502Z,7.03
2022-12-01T05:10:04.587Z,6.94
2022-12-01T05:11:04.543Z,6.94
2022-12-01T05:12:04.560Z,7.10
2022-12-01T05:13:04.580Z,7.02
2022-12-01T05:14:04.600Z,6.88
2022-12-01T05:15:04.621Z,7.02
2022-12-01T05:16:05.057Z,6.99
2022-12-01T05:17:04.656Z,6.98
2022-12-01T05:18:04.677Z,6.85
2022-12-01T05:19:04.696Z,6.98
2022-12-01T05:20:04.717Z,6.99
2022-12-01T05:21:04.735Z,6.85
2022-12-01T05:22:04.754Z,6.89
2022-12-01T05:23:06.228Z,6.94
2022-12-01T05:24:04.793Z,6.95
2022-12-01T05:25:04.814Z,6.95
2022-12-01T05:26:04.832Z,6.92
2022-12-01T05:27:04.853Z,6.87
2022-12-01T05:28:04.879Z,6.94
2022-12-01T05:29:04.891Z,6.92
2022-12-01T05:30:05.006Z,6.80
2022-12-01T05:31:04.994Z,6.85
2022-12-01T05:32:05.027Z,6.85
2022-12-01T05:33:04.969Z,6.81
2022-12-01T05:34:04.985Z,6.80
2022-12-01T05:35:05.005Z,6.87
2022-12-01T05:36:05.026Z,6.92
2022-12-01T05:37:05.042Z,6.92
2022-12-01T05:38:08.026Z,6.95
2022-12-01T05:39:05.090Z,6.94
2022-12-01T05:40:05.103Z,6.88
2022-12-01T05:41:05.118Z,6.87
2022-12-01T05:42:05.142Z,6.94
2022-12-01T05:43:05.159Z,6.84
2022-12-01T05:44:05.180Z,6.85
2022-12-01T05:45:05.196Z,6.84
2022-12-01T05:46:05.274Z,6.89
2022-12-01T05:47:05.235Z,6.95
2022-12-01T05:48:05.256Z,6.94
2022-12-01T05:49:05.273Z,6.81
2022-12-01T05:50:06.138Z,6.87
2022-12-01T05:51:05.312Z,6.81
2022-12-01T05:52:05.333Z,6.80
2022-12-01T05:53:05.359Z,6.79
2022-12-01T05:54:05.368Z,6.85
2022-12-01T05:55:05.385Z,6.79
2022-12-01T05:56:05.412Z,6.77
2022-12-01T05:57:05.426Z,6.85
2022-12-01T05:58:05.446Z,6.85
2022-12-01T05:59:05.463Z,6.81
2022-12-01T06:00:05.486Z,6.80
2022-12-01T06:01:05.512Z,6.76
2022-12-01T06:02:05.555Z,6.80
2022-12-01T06:03:05.541Z,6.74
2022-12-01T06:04:05.576Z,6.85
2022-12-01T06:05:05.633Z,6.79
2022-12-01T06:06:05.598Z,6.79
2022-12-01T06:07:05.615Z,6.77
2022-12-01T06:08:05.640Z,6.81
2022-12-01T06:09:05.657Z,6.85
2022-12-01T06:10:05.679Z,6.84
2022-12-01T06:11:05.696Z,6.84
2022-12-01T06:12:05.718Z,6.94
2022-12-01T06:13:05.736Z,6.81
2022-12-01T06:14:05.758Z,6.85
2022-12-01T06:15:05.771Z,6.81
2022-12-01T06:16:05.791Z,6.87
2022-12-01T06:17:05.810Z,6.84
2022-12-01T06:18:05.832Z,6.77
2022-12-01T06:19:05.848Z,6.91
2022-12-01T06:20:05.866Z,6.87
2022-12-01T06:21:05.905Z,6.87
2022-12-01T06:22:05.904Z,6.89
2022-12-01T06:23:05.926Z,6.87
2022-12-01T06:24:05.947Z,6.84
2022-12-01T06:25:05.964Z,6.94
2022-12-01T06:26:05.984Z,6.71
2022-12-01T06:27:05.999Z,6.81
2022-12-01T06:28:06.024Z,6.79
2022-12-01T06:29:06.042Z,6.79
2022-12-01T06:30:06.061Z,6.76
2022-12-01T06:31:06.075Z,6.74
2022-12-01T06:32:06.129Z,6.74
2022-12-01T06:33:06.118Z,6.71
2022-12-01T06:34:06.137Z,6.64
2022-12-01T06:35:06.156Z,6.71
2022-12-01T06:36:06.181Z,6.73
2022-12-01T06:37:06.191Z,6.84
2022-12-01T06:38:06.217Z,6.70
2022-12-01T06:39:06.230Z,6.70
2022-12-01T06:40:06.252Z,6.79
2022-12-01T06:41:06.272Z,6.64
2022-12-01T06:42:06.291Z,6.66
2022-12-01T06:43:06.309Z,6.71
2022-12-01T06:44:06.329Z,6.62
2022-12-01T06:45:06.346Z,6.62
2022-12-01T06:46:06.432Z,6.69
2022-12-01T06:47:06.385Z,6.69
2022-12-01T06:48:06.406Z,6.67
2022-12-01T06:49:06.425Z,6.55
2022-12-01T06:50:06.442Z,6.59
2022-12-01T06:51:06.460Z,6.52
2022-12-01T06:52:06.481Z,6.56
2022-12-01T06:53:06.499Z,6.54
2022-12-01T06:54:06.516Z,6.52
2022-12-01T06:55:06.537Z,6.56
2022-12-01T06:56:06.555Z,6.58
2022-12-01T06:57:06.573Z,6.56
2022-12-01T06:58:06.599Z,6.49
2022-12-01T06:59:06.633Z,6.54
2022-12-01T07:00:06.636Z,6.61
2022-12-01T07:01:06.694Z,6.59
2022-12-01T07:02:06.713Z,6.62
2022-12-01T07:03:06.689Z,6.70
2022-12-01T07:04:06.710Z,6.70
2022-12-01T07:05:06.730Z,6.66
2022-12-01T07:06:06.748Z,6.58
2022-12-01T07:07:06.765Z,6.70
2022-12-01T07:08:06.821Z,6.66
2022-12-01T07:09:06.801Z,6.64
2022-12-01T07:10:06.826Z,6.56
2022-12-01T07:11:06.840Z,6.66
2022-12-01T07:12:06.860Z,6.66
2022-12-01T07:13:06.880Z,6.67
2022-12-01T07:14:06.898Z,6.70
2022-12-01T07:15:06.920Z,6.70
2022-12-01T07:16:06.937Z,6.66
2022-12-01T07:17:07.019Z,6.62
2022-12-01T07:18:06.976Z,6.66
2022-12-01T07:19:06.996Z,6.70
2022-12-01T07:20:07.020Z,6.69
2022-12-01T07:21:07.036Z,6.67
2022-12-01T07:22:07.051Z,6.69
2022-12-01T07:23:07.074Z,6.66
2022-12-01T07:24:07.093Z,6.64
2022-12-01T07:25:07.111Z,6.69
2022-12-01T07:26:07.216Z,6.67
2022-12-01T07:27:07.146Z,6.70
2022-12-01T07:28:07.164Z,6.69
2022-12-01T07:29:07.204Z,6.62
2022-12-01T07:30:07.202Z,6.69
2022-12-01T07:31:07.270Z,6.71
2022-12-01T07:32:07.243Z,6.69
2022-12-01T07:33:07.264Z,6.61
2022-12-01T07:34:07.297Z,6.71
2022-12-01T07:35:07.298Z,6.64
2022-12-01T07:36:07.320Z,6.69
2022-12-01T07:37:07.335Z,6.56
2022-12-01T07:38:07.355Z,6.73
2022-12-01T07:39:07.373Z,6.67
2022-12-01T07:40:07.394Z,6.69
2022-12-01T07:41:07.414Z,6.69
2022-12-01T07:42:07.431Z,6.71
2022-12-01T07:43:07.449Z,6.62
2022-12-01T07:44:07.470Z,6.71
2022-12-01T07:45:07.490Z,6.70
2022-12-01T07:46:07.550Z,6.70
2022-12-01T07:47:07.530Z,6.73
2022-12-01T07:48:07.550Z,6.81
2022-12-01T07:49:07.568Z,6.77
2022-12-01T07:50:07.586Z,6.76
2022-12-01T07:51:07.604Z,6.76
2022-12-01T07:52:07.625Z,6.77
2022-12-01T07:53:07.641Z,6.73
2022-12-01T07:54:07.661Z,6.73
2022-12-01T07:55:07.678Z,6.70
2022-12-01T07:56:08.912Z,6.71
2022-12-01T07:57:07.715Z,6.80
2022-12-01T07:58:07.739Z,6.84
2022-12-01T07:59:07.760Z,6.77
2022-12-01T08:00:07.776Z,6.79
2022-12-01T08:01:07.819Z,6.79
2022-12-01T08:02:07.845Z,6.80
2022-12-01T08:03:07.918Z,6.81
2022-12-01T08:04:07.854Z,6.85
2022-12-01T08:05:07.874Z,6.89
2022-12-01T08:06:07.892Z,6.94
2022-12-01T08:07:07.907Z,6.81
2022-12-01T08:08:07.970Z,6.95
2022-12-01T08:09:07.950Z,6.94
2022-12-01T08:10:07.968Z,6.84
2022-12-01T08:11:07.985Z,6.87
2022-12-01T08:12:08.009Z,6.89
2022-12-01T08:13:10.693Z,6.91
2022-12-01T08:14:08.051Z,6.97
2022-12-01T08:15:08.065Z,6.84
2022-12-01T08:16:08.133Z,6.87
2022-12-01T08:17:08.103Z,6.88
2022-12-01T08:18:08.120Z,6.97
2022-12-01T08:19:08.142Z,6.97
2022-12-01T08:20:08.158Z,7.03
2022-12-01T08:21:08.179Z,6.94
2022-12-01T08:22:08.200Z,6.92
2022-12-01T08:23:08.217Z,7.09
2022-12-01T08:24:08.237Z,6.92
2022-12-01T08:25:08.255Z,7.03
2022-12-01T08:26:08.276Z,7.05
2022-12-01T08:27:08.294Z,7.05
2022-12-01T08:28:08.344Z,7.09
2022-12-01T08:29:08.334Z,6.99
2022-12-01T08:30:08.354Z,6.95
2022-12-01T08:31:08.439Z,7.03
2022-12-01T08:32:08.391Z,6.89
2022-12-01T08:33:08.412Z,6.87
2022-12-01T08:34:08.431Z,6.91
2022-12-01T08:35:08.451Z,6.88
2022-12-01T08:36:08.469Z,6.91
2022-12-01T08:37:08.492Z,6.89
2022-12-01T08:38:08.508Z,6.91
2022-12-01T08:39:08.527Z,6.97
2022-12-01T08:40:08.545Z,6.99
2022-12-01T08:41:08.564Z,6.97
2022-12-01T08:42:08.591Z,6.87
2022-12-01T08:43:12.365Z,6.92
2022-12-01T08:44:08.624Z,6.94
2022-12-01T08:45:08.645Z,6.87
2022-12-01T08:46:08.731Z,6.92
2022-12-01T08:47:09.543Z,6.94
2022-12-01T08:48:08.702Z,6.89
2022-12-01T08:49:08.729Z,6.87
2022-12-01T08:50:08.743Z,6.81
2022-12-01T08:51:08.760Z,6.81
2022-12-01T08:52:08.782Z,6.80
2022-12-01T08:53:08.798Z,6.85
2022-12-01T08:54:08.825Z,6.89
2022-12-01T08:55:08.837Z,6.94
2022-12-01T08:56:08.853Z,6.97
2022-12-01T08:57:08.876Z,6.99
2022-12-01T08:58:08.895Z,6.99
2022-12-01T08:59:08.915Z,6.99
2022-12-01T09:00:08.937Z,6.97
2022-12-01T09:01:08.954Z,6.97
2022-12-01T09:02:09.008Z,7.02
2022-12-01T09:03:09.043Z,6.87
2022-12-01T09:04:09.245Z,6.97
2022-12-01T09:05:09.030Z,6.89
2022-12-01T09:06:09.049Z,6.97
2022-12-01T09:07:09.072Z,6.92
2022-12-01T09:08:09.152Z,7.06
2022-12-01T09:09:09.109Z,6.97
2022-12-01T09:10:09.132Z,6.97
2022-12-01T09:11:09.149Z,6.89
2022-12-01T09:12:09.169Z,7.06
2022-12-01T09:13:09.184Z,7.05
2022-12-01T09:14:09.203Z,7.02
2022-12-01T09:15:09.225Z,6.94
2022-12-01T09:16:09.274Z,6.98
2022-12-01T09:17:09.263Z,6.92
2022-12-01T09:18:09.284Z,6.94
2022-12-01T09:19:09.295Z,6.92
2022-12-01T09:20:09.323Z,6.94
2022-12-01T09:21:09.341Z,7.02
2022-12-01T09:22:09.368Z,7.13
2022-12-01T09:23:09.378Z,7.06
2022-12-01T09:24:09.399Z,7.07
2022-12-01T09:25:09.418Z,6.97
2022-12-01T09:26:13.381Z,6.98
2022-12-01T09:27:09.453Z,7.07
2022-12-01T09:28:09.477Z,6.95
2022-12-01T09:29:09.497Z,7.06
2022-12-01T09:30:09.523Z,6.92
2022-12-01T09:31:09.607Z,7.05
2022-12-01T09:32:09.555Z,7.06
2022-12-01T09:33:09.573Z,7.09
2022-12-01T09:34:09.591Z,7.02
2022-12-01T09:35:09.613Z,7.07
2022-12-01T09:36:09.632Z,6.99
2022-12-01T09:37:09.651Z,7.06
2022-12-01T09:38:09.668Z,7.05
2022-12-01T09:39:09.690Z,7.09
2022-12-01T09:40:09.709Z,7.06
2022-12-01T09:41:09.730Z,7.07
2022-12-01T09:42:09.753Z,7.07
2022-12-01T09:43:09.766Z,7.15
2022-12-01T09:44:09.785Z,7.09
2022-12-01T09:45:09.808Z,7.06
2022-12-01T09:46:09.830Z,7.10
2022-12-01T09:47:09.926Z,7.09
2022-12-01T09:48:09.867Z,7.09
2022-12-01T09:49:09.883Z,7.09
2022-12-01T09:50:09.905Z,7.05
2022-12-01T09:51:09.935Z,7.06
2022-12-01T09:52:17.107Z,7.09
2022-12-01T09:54:14.440Z,7.12
2022-12-01T09:55:14.256Z,7.15
2022-12-01T09:57:17.993Z,7.09
2022-12-01T09:58:17.997Z,7.09
2022-12-01T10:00:22.486Z,7.25
2022-12-01T10:01:27.119Z,7.23
2022-12-01T10:03:26.029Z,7.20
2022-12-01T10:04:26.030Z,7.13
2022-12-01T10:06:30.625Z,7.24
2022-12-01T10:07:30.094Z,7.21
2022-12-01T10:09:22.987Z,7.27
2022-12-01T10:10:23.009Z,7.23
2022-12-01T10:12:27.487Z,7.24
2022-12-01T10:13:27.032Z,7.23
2022-12-01T10:15:31.032Z,7.25
2022-12-01T10:16:31.093Z,7.20
2022-12-01T10:18:35.545Z,7.27
2022-12-01T10:19:35.064Z,7.30
2022-12-01T10:21:39.098Z,7.34
2022-12-01T10:22:39.086Z,7.34
2022-12-01T10:24:43.575Z,7.42
2022-12-01T10:25:43.101Z,7.35
2022-12-01T10:27:47.129Z,7.30
2022-12-01T10:28:47.109Z,7.37
2022-12-01T10:30:51.596Z,7.30
2022-12-01T10:31:51.151Z,7.34
2022-12-01T10:33:55.132Z,7.21
2022-12-01T10:34:55.134Z,7.30
2022-12-01T10:36:59.696Z,7.16
2022-12-01T10:37:59.197Z,7.12
2022-12-01T10:39:52.619Z,7.17
2022-12-01T10:40:52.113Z,7.13
2022-12-01T10:42:56.610Z,7.07
2022-12-01T10:43:56.147Z,7.16
2022-12-01T10:46:00.260Z,7.12
2022-12-01T10:47:00.158Z,7.12
2022-12-01T10:48:53.630Z,7.12
2022-12-01T10:49:53.362Z,7.10
2022-12-01T10:51:57.594Z,7.17
2022-12-01T10:52:57.609Z,7.21
2022-12-01T10:53:57.625Z,7.30
2022-12-01T10:54:57.645Z,7.32
2022-12-01T10:55:57.661Z,7.40
2022-12-01T10:56:57.685Z,7.42
2022-12-01T10:57:57.727Z,7.50
2022-12-01T10:58:57.727Z,7.46
2022-12-01T10:59:57.745Z,7.52
2022-12-01T11:01:00.288Z,7.60
2022-12-01T11:01:57.985Z,7.68
2022-12-01T11:02:57.970Z,7.63
2022-12-01T11:03:57.867Z,7.74
2022-12-01T11:04:57.842Z,7.75
2022-12-01T11:05:57.862Z,7.79
2022-12-01T11:06:57.881Z,7.71
2022-12-01T11:07:57.934Z,7.68
2022-12-01T11:08:57.929Z,7.69
2022-12-01T11:09:57.943Z,7.64
2022-12-01T11:10:57.985Z,7.75
2022-12-01T11:11:58.001Z,7.68
2022-12-01T11:12:58.001Z,7.75
2022-12-01T11:13:58.025Z,7.68
2022-12-01T11:14:58.053Z,7.72
2022-12-01T11:15:58.063Z,7.77
2022-12-01T11:16:58.096Z,7.69
2022-12-01T11:17:58.101Z,7.75
2022-12-01T11:18:58.212Z,7.74
2022-12-01T11:19:58.167Z,7.72
2022-12-01T11:20:58.160Z,7.77
2022-12-01T11:21:58.198Z,7.68
2022-12-01T11:22:58.202Z,7.69
2022-12-01T11:23:58.223Z,7.64
2022-12-01T11:24:58.243Z,7.75
2022-12-01T11:25:58.264Z,7.69
2022-12-01T11:26:58.301Z,7.68
2022-12-01T11:27:58.303Z,7.79
2022-12-01T11:28:58.371Z,7.67
2022-12-01T11:29:58.340Z,7.72
2022-12-01T11:30:58.373Z,7.68
2022-12-01T11:31:58.477Z,7.63
2022-12-01T11:32:58.401Z,7.67
2022-12-01T11:33:58.423Z,7.71
2022-12-01T11:34:58.441Z,7.67
2022-12-01T11:35:58.466Z,7.67
2022-12-01T11:36:58.486Z,7.71
2022-12-01T11:38:29.309Z,7.72
2022-12-01T11:38:58.524Z,7.48
2022-12-01T11:39:58.542Z,7.49
2022-12-01T11:40:58.584Z,7.48
2022-12-01T11:41:58.584Z,7.50
2022-12-01T11:42:58.603Z,7.50
2022-12-01T11:44:01.827Z,7.60
2022-12-01T11:44:58.644Z,7.53
2022-12-01T11:45:58.752Z,7.55
2022-12-01T11:47:21.503Z,7.50
2022-12-01T11:47:58.708Z,7.63
2022-12-01T11:48:58.721Z,7.61
2022-12-01T11:49:58.776Z,7.67
2022-12-01T11:50:58.761Z,7.64
2022-12-01T11:51:58.787Z,7.68
2022-12-01T11:52:58.804Z,7.69
2022-12-01T11:53:58.823Z,7.68
2022-12-01T11:54:58.839Z,7.67
2022-12-01T11:55:58.862Z,7.75
2022-12-01T11:57:31.637Z,7.58
2022-12-01T11:57:58.904Z,7.57
2022-12-01T11:58:58.923Z,7.68
2022-12-01T11:59:58.941Z,7.60
2022-12-01T12:00:58.960Z,7.61
2022-12-01T12:01:59.043Z,7.52
2022-12-01T12:02:59.076Z,7.60
2022-12-01T12:03:59.023Z,7.63
2022-12-01T12:04:59.052Z,7.68
2022-12-01T12:06:17.824Z,7.67
2022-12-01T12:06:59.080Z,7.61
2022-12-01T12:07:59.181Z,7.63
2022-12-01T12:08:59.150Z,7.63
2022-12-01T12:09:59.141Z,7.61
2022-12-01T12:10:59.488Z,7.63
2022-12-01T12:11:59.182Z,7.63
2022-12-01T12:12:59.208Z,7.50
2022-12-01T12:13:59.226Z,7.55
2022-12-01T12:14:59.245Z,7.48
2022-12-01T12:15:59.264Z,7.53
2022-12-01T12:16:59.281Z,7.48
2022-12-01T12:17:59.330Z,7.45
2022-12-01T12:18:59.331Z,7.50
2022-12-01T12:20:07.801Z,7.48
2022-12-01T12:20:59.369Z,7.58
2022-12-01T12:21:59.384Z,7.55
2022-12-01T12:22:59.410Z,7.52
2022-12-01T12:23:59.422Z,7.43
2022-12-01T12:24:59.444Z,7.49
2022-12-01T12:25:59.458Z,7.53
2022-12-01T12:26:59.480Z,7.50
2022-12-01T12:27:59.497Z,7.49
2022-12-01T12:28:59.520Z,7.48
2022-12-01T12:29:59.541Z,7.55
2022-12-01T12:30:59.583Z,7.50
2022-12-01T12:31:59.577Z,7.45
2022-12-01T12:32:59.609Z,7.43
2022-12-01T12:33:59.621Z,7.35
2022-12-01T12:34:59.646Z,7.37
2022-12-01T12:35:59.657Z,7.34
2022-12-01T12:36:59.679Z,7.40
2022-12-01T12:37:59.698Z,7.35
2022-12-01T12:38:59.722Z,7.35
2022-12-01T12:39:59.743Z,7.31
2022-12-01T12:40:59.765Z,7.30
2022-12-01T12:41:59.781Z,7.21
2022-12-01T12:42:59.802Z,7.24
2022-12-01T12:43:59.820Z,7.27
2022-12-01T12:44:59.835Z,7.40
2022-12-01T12:45:59.925Z,7.34
2022-12-01T12:46:59.877Z,7.35
2022-12-01T12:47:59.896Z,7.30
2022-12-01T12:49:59.934Z,7.30
2022-12-01T12:50:59.962Z,7.32
2022-12-01T12:52:06.590Z,7.24
2022-12-01T12:52:59.996Z,7.27
2022-12-01T12:54:00.073Z,7.27
2022-12-01T12:55:00.037Z,7.23
2022-12-01T12:56:00.055Z,7.16
2022-12-01T12:57:00.099Z,7.16
2022-12-01T12:58:00.089Z,7.15
2022-12-01T12:59:00.109Z,7.09
2022-12-01T13:00:00.156Z,7.15
2022-12-01T13:01:00.158Z,7.20
2022-12-01T13:02:00.278Z,7.12
2022-12-01T13:03:00.242Z,7.24
2022-12-01T13:04:00.213Z,7.17
2022-12-01T13:05:00.233Z,7.21
2022-12-01T13:06:00.252Z,7.28
2022-12-01T13:07:00.274Z,7.21
2022-12-01T13:08:00.348Z,7.34
2022-12-01T13:09:00.309Z,7.32
2022-12-01T13:10:00.950Z,7.35
2022-12-01T13:11:00.355Z,7.27
2022-12-01T13:12:00.373Z,7.24
2022-12-01T13:13:00.389Z,7.27
2022-12-01T13:14:00.443Z,7.20
2022-12-01T13:15:01.395Z,7.21
2022-12-01T13:16:00.500Z,7.15
2022-12-01T13:17:00.469Z,7.13
2022-12-01T13:18:00.484Z,7.27
2022-12-01T13:19:00.508Z,7.17
2022-12-01T13:20:00.524Z,7.15
2022-12-01T13:21:00.549Z,7.12
2022-12-01T13:22:00.623Z,7.06
2022-12-01T13:23:00.591Z,7.10
2022-12-01T13:24:00.607Z,7.09
2022-12-01T13:25:00.624Z,7.03
2022-12-01T13:26:00.640Z,7.07
2022-12-01T13:27:00.664Z,7.09
2022-12-01T13:28:00.686Z,7.05
2022-12-01T13:29:00.704Z,7.05
2022-12-01T13:30:00.723Z,7.09
2022-12-01T13:31:00.785Z,7.09
2022-12-01T13:32:00.764Z,6.95
2022-12-01T13:33:00.806Z,6.94
2022-12-01T13:34:00.802Z,6.99
2022-12-01T13:35:00.836Z,6.95
2022-12-01T13:36:30.361Z,6.95
2022-12-01T13:37:00.860Z,6.97
2022-12-01T13:38:00.879Z,6.92
2022-12-01T13:39:00.900Z,6.97
2022-12-01T13:40:00.915Z,6.87
2022-12-01T13:41:00.941Z,6.91